sensor_id;sensor_type;location;lat;lon;timestamp;pressure;altitude;pressure_sealevel;temperature;humidity
35129;BME280;21301;43.626;10.580;2023-10-19T00:00:41;100538.06;;;17.95;77.18
35129;BME280;21301;43.626;10.580;2023-10-19T00:03:11;100525.94;;;17.92;77.17
35129;BME280;21301;43.626;10.580;2023-10-19T00:05:37;100529.75;;;17.90;77.30
35129;BME280;21301;43.626;10.580;2023-10-19T00:08:04;100514.13;;;17.86;77.46
35129;BME280;21301;43.626;10.580;2023-10-19T00:10:41;100512.63;;;17.84;77.58
35129;BME280;21301;43.626;10.580;2023-10-19T00:13:11;100512.94;;;17.89;77.28
35129;BME280;21301;43.626;10.580;2023-10-19T00:15:41;100509.81;;;17.85;77.42
35129;BME280;21301;43.626;10.580;2023-10-19T00:18:14;100508.78;;;17.95;77.13
35129;BME280;21301;43.626;10.580;2023-10-19T00:20:43;100500.50;;;17.90;77.30
35129;BME280;21301;43.626;10.580;2023-10-19T00:23:23;100513.81;;;17.90;77.34
35129;BME280;21301;43.626;10.580;2023-10-19T00:26:01;100499.81;;;17.96;77.16
35129;BME280;21301;43.626;10.580;2023-10-19T00:28:46;100489.16;;;17.96;77.19
35129;BME280;21301;43.626;10.580;2023-10-19T00:31:15;100489.47;;;18.01;76.87
35129;BME280;21301;43.626;10.580;2023-10-19T00:33:41;100499.81;;;18.04;76.76
35129;BME280;21301;43.626;10.580;2023-10-19T00:36:08;100493.47;;;18.05;76.81
35129;BME280;21301;43.626;10.580;2023-10-19T00:38:36;100491.13;;;18.10;76.72
35129;BME280;21301;43.626;10.580;2023-10-19T00:41:04;100497.09;;;18.12;76.47
35129;BME280;21301;43.626;10.580;2023-10-19T00:43:36;100481.28;;;18.10;76.33
35129;BME280;21301;43.626;10.580;2023-10-19T00:46:06;100479.59;;;18.18;76.18
35129;BME280;21301;43.626;10.580;2023-10-19T00:48:57;100474.34;;;18.09;76.12
35129;BME280;21301;43.626;10.580;2023-10-19T00:54:12;100457.84;;;18.14;75.94
35129;BME280;21301;43.626;10.580;2023-10-19T00:56:46;100450.84;;;18.21;75.80
35129;BME280;21301;43.626;10.580;2023-10-19T00:59:19;100446.50;;;18.20;75.94
35129;BME280;21301;43.626;10.580;2023-10-19T01:01:50;100442.03;;;18.21;75.65
35129;BME280;21301;43.626;10.580;2023-10-19T01:04:16;100428.22;;;18.17;75.92
35129;BME280;21301;43.626;10.580;2023-10-19T01:06:48;100421.72;;;18.20;75.88
35129;BME280;21301;43.626;10.580;2023-10-19T01:09:32;100423.91;;;18.16;75.96
35129;BME280;21301;43.626;10.580;2023-10-19T01:12:05;100416.25;;;18.13;75.95
35129;BME280;21301;43.626;10.580;2023-10-19T01:17:31;100414.91;;;18.17;75.84
35129;BME280;21301;43.626;10.580;2023-10-19T01:19:56;100420.06;;;18.19;75.70
35129;BME280;21301;43.626;10.580;2023-10-19T01:22:23;100407.09;;;18.16;76.04
35129;BME280;21301;43.626;10.580;2023-10-19T01:24:52;100405.09;;;18.18;75.88
35129;BME280;21301;43.626;10.580;2023-10-19T01:27:19;100394.66;;;18.16;75.91
35129;BME280;21301;43.626;10.580;2023-10-19T01:29:45;100391.31;;;18.14;76.12
35129;BME280;21301;43.626;10.580;2023-10-19T01:32:12;100389.66;;;18.13;76.06
35129;BME280;21301;43.626;10.580;2023-10-19T01:34:40;100391.31;;;18.14;76.02
35129;BME280;21301;43.626;10.580;2023-10-19T01:37:06;100389.31;;;18.16;75.93
35129;BME280;21301;43.626;10.580;2023-10-19T01:39:33;100376.34;;;18.13;76.10
35129;BME280;21301;43.626;10.580;2023-10-19T01:42:01;100381.84;;;18.12;76.25
35129;BME280;21301;43.626;10.580;2023-10-19T01:44:27;100374.53;;;18.14;76.16
35129;BME280;21301;43.626;10.580;2023-10-19T01:46:53;100385.34;;;18.12;76.07
35129;BME280;21301;43.626;10.580;2023-10-19T01:49:18;100387.19;;;18.12;76.33
35129;BME280;21301;43.626;10.580;2023-10-19T01:51:52;100382.19;;;18.08;76.44
35129;BME280;21301;43.626;10.580;2023-10-19T01:54:19;100371.53;;;18.08;76.34
35129;BME280;21301;43.626;10.580;2023-10-19T01:56:52;100374.03;;;18.10;76.26
35129;BME280;21301;43.626;10.580;2023-10-19T01:59:26;100363.41;;;18.10;76.33
35129;BME280;21301;43.626;10.580;2023-10-19T02:01:54;100346.41;;;18.11;76.26
35129;BME280;21301;43.626;10.580;2023-10-19T02:04:20;100342.81;;;18.04;76.49
35129;BME280;21301;43.626;10.580;2023-10-19T02:06:47;100326.50;;;18.07;76.34
35129;BME280;21301;43.626;10.580;2023-10-19T02:09:15;100319.69;;;18.04;76.20
35129;BME280;21301;43.626;10.580;2023-10-19T02:11:42;100305.56;;;18.04;76.38
35129;BME280;21301;43.626;10.580;2023-10-19T02:14:11;100302.59;;;17.99;76.00
35129;BME280;21301;43.626;10.580;2023-10-19T02:16:42;100297.09;;;18.00;76.41
35129;BME280;21301;43.626;10.580;2023-10-19T02:19:09;100295.47;;;17.99;76.50
35129;BME280;21301;43.626;10.580;2023-10-19T02:21:34;100292.78;;;17.99;76.36
35129;BME280;21301;43.626;10.580;2023-10-19T02:24:09;100285.16;;;17.96;76.55
35129;BME280;21301;43.626;10.580;2023-10-19T02:26:39;100283.16;;;17.98;76.47
35129;BME280;21301;43.626;10.580;2023-10-19T02:29:05;100278.47;;;18.00;76.39
35129;BME280;21301;43.626;10.580;2023-10-19T02:31:40;100293.78;;;17.98;76.66
35129;BME280;21301;43.626;10.580;2023-10-19T02:34:06;100300.78;;;17.99;76.44
35129;BME280;21301;43.626;10.580;2023-10-19T02:36:34;100303.44;;;17.99;76.58
35129;BME280;21301;43.626;10.580;2023-10-19T02:39:05;100316.22;;;18.04;76.38
35129;BME280;21301;43.626;10.580;2023-10-19T02:41:38;100307.88;;;18.07;76.34
35129;BME280;21301;43.626;10.580;2023-10-19T02:44:07;100286.88;;;18.12;76.24
35129;BME280;21301;43.626;10.580;2023-10-19T02:46:36;100290.06;;;18.07;76.43
35129;BME280;21301;43.626;10.580;2023-10-19T02:49:09;100297.69;;;18.10;76.29
35129;BME280;21301;43.626;10.580;2023-10-19T02:51:42;100279.91;;;18.11;76.75
35129;BME280;21301;43.626;10.580;2023-10-19T02:54:12;100291.69;;;18.17;76.32
35129;BME280;21301;43.626;10.580;2023-10-19T02:56:49;100319.28;;;18.16;76.86
35129;BME280;21301;43.626;10.580;2023-10-19T02:59:17;100305.97;;;18.16;76.83
35129;BME280;21301;43.626;10.580;2023-10-19T03:02:12;100304.06;;;18.01;77.87
35129;BME280;21301;43.626;10.580;2023-10-19T03:04:39;100309.88;;;18.05;77.44
35129;BME280;21301;43.626;10.580;2023-10-19T03:07:06;100304.41;;;18.06;77.29
35129;BME280;21301;43.626;10.580;2023-10-19T03:09:32;100290.06;;;18.07;77.31
35129;BME280;21301;43.626;10.580;2023-10-19T03:12:02;100279.28;;;18.09;77.67
35129;BME280;21301;43.626;10.580;2023-10-19T03:14:30;100299.19;;;18.13;77.70
35129;BME280;21301;43.626;10.580;2023-10-19T03:16:57;100311.88;;;18.03;78.22
35129;BME280;21301;43.626;10.580;2023-10-19T03:19:23;100313.44;;;17.97;78.59
35129;BME280;21301;43.626;10.580;2023-10-19T03:21:52;100312.63;;;17.88;78.81
35129;BME280;21301;43.626;10.580;2023-10-19T03:24:20;100313.81;;;17.86;78.94
35129;BME280;21301;43.626;10.580;2023-10-19T03:27:00;100310.03;;;17.80;79.20
35129;BME280;21301;43.626;10.580;2023-10-19T03:29:26;100306.38;;;17.73;79.51
35129;BME280;21301;43.626;10.580;2023-10-19T03:31:58;100312.84;;;17.71;80.00
35129;BME280;21301;43.626;10.580;2023-10-19T03:34:26;100295.94;;;17.63;80.24
35129;BME280;21301;43.626;10.580;2023-10-19T03:36:52;100292.13;;;17.58;80.90
35129;BME280;21301;43.626;10.580;2023-10-19T03:39:19;100259.91;;;17.53;81.12
35129;BME280;21301;43.626;10.580;2023-10-19T03:41:46;100235.16;;;17.52;81.06
35129;BME280;21301;43.626;10.580;2023-10-19T03:44:12;100261.75;;;17.52;81.43
35129;BME280;21301;43.626;10.580;2023-10-19T03:46:51;100263.41;;;17.53;81.43
35129;BME280;21301;43.626;10.580;2023-10-19T03:49:35;100283.03;;;17.52;81.53
35129;BME280;21301;43.626;10.580;2023-10-19T03:52:08;100284.66;;;17.53;81.81
35129;BME280;21301;43.626;10.580;2023-10-19T03:54:33;100299.13;;;17.59;81.54
35129;BME280;21301;43.626;10.580;2023-10-19T03:57:04;100348.44;;;17.61;81.45
35129;BME280;21301;43.626;10.580;2023-10-19T03:59:32;100273.41;;;17.51;82.44
35129;BME280;21301;43.626;10.580;2023-10-19T04:01:59;100265.94;;;17.46;82.60
35129;BME280;21301;43.626;10.580;2023-10-19T04:04:26;100194.69;;;17.73;81.89
35129;BME280;21301;43.626;10.580;2023-10-19T04:06:55;100170.00;;;17.87;81.81
35129;BME280;21301;43.626;10.580;2023-10-19T04:09:26;100204.13;;;17.76;82.21
35129;BME280;21301;43.626;10.580;2023-10-19T04:11:55;100243.59;;;17.64;82.49
35129;BME280;21301;43.626;10.580;2023-10-19T04:14:21;100279.50;;;17.60;82.85
35129;BME280;21301;43.626;10.580;2023-10-19T04:16:47;100275.34;;;17.57;82.95
35129;BME280;21301;43.626;10.580;2023-10-19T04:19:14;100276.53;;;17.55;82.92
35129;BME280;21301;43.626;10.580;2023-10-19T04:21:41;100273.03;;;17.54;82.95
35129;BME280;21301;43.626;10.580;2023-10-19T04:24:12;100285.50;;;17.54;82.92
35129;BME280;21301;43.626;10.580;2023-10-19T04:26:38;100309.09;;;17.57;82.73
35129;BME280;21301;43.626;10.580;2023-10-19T04:29:06;100326.16;;;17.62;82.53
35129;BME280;21301;43.626;10.580;2023-10-19T04:31:42;100344.78;;;17.62;82.65
35129;BME280;21301;43.626;10.580;2023-10-19T04:34:20;100335.47;;;17.66;82.42
35129;BME280;21301;43.626;10.580;2023-10-19T04:36:52;100304.91;;;17.62;82.75
35129;BME280;21301;43.626;10.580;2023-10-19T04:39:18;100269.06;;;17.58;82.88
35129;BME280;21301;43.626;10.580;2023-10-19T04:41:46;100255.41;;;17.53;83.10
35129;BME280;21301;43.626;10.580;2023-10-19T04:44:14;100245.66;;;17.45;83.73
35129;BME280;21301;43.626;10.580;2023-10-19T04:46:41;100238.19;;;17.49;83.68
35129;BME280;21301;43.626;10.580;2023-10-19T04:49:07;100218.91;;;17.47;83.61
35129;BME280;21301;43.626;10.580;2023-10-19T04:51:34;100222.75;;;17.44;83.74
35129;BME280;21301;43.626;10.580;2023-10-19T04:54:02;100246.47;;;17.46;83.82
35129;BME280;21301;43.626;10.580;2023-10-19T04:56:27;100255.13;;;17.48;83.68
35129;BME280;21301;43.626;10.580;2023-10-19T04:58:53;100270.75;;;17.51;83.63
35129;BME280;21301;43.626;10.580;2023-10-19T05:01:19;100292.53;;;17.46;84.19
35129;BME280;21301;43.626;10.580;2023-10-19T05:03:44;100319.63;;;17.42;84.32
35129;BME280;21301;43.626;10.580;2023-10-19T05:06:10;100343.91;;;17.22;85.60
35129;BME280;21301;43.626;10.580;2023-10-19T05:08:36;100344.56;;;17.16;85.96
35129;BME280;21301;43.626;10.580;2023-10-19T05:11:02;100314.13;;;17.35;85.06
35129;BME280;21301;43.626;10.580;2023-10-19T05:13:30;100298.34;;;17.42;84.70
35129;BME280;21301;43.626;10.580;2023-10-19T05:15:56;100271.06;;;17.48;84.58
35129;BME280;21301;43.626;10.580;2023-10-19T05:18:24;100262.09;;;17.49;84.30
35129;BME280;21301;43.626;10.580;2023-10-19T05:20:50;100255.41;;;17.53;84.30
35129;BME280;21301;43.626;10.580;2023-10-19T05:23:22;100264.25;;;17.54;84.06
35129;BME280;21301;43.626;10.580;2023-10-19T05:25:49;100271.22;;;17.55;84.08
35129;BME280;21301;43.626;10.580;2023-10-19T05:28:15;100261.06;;;17.58;84.24
35129;BME280;21301;43.626;10.580;2023-10-19T05:30:41;100266.38;;;17.58;84.49
35129;BME280;21301;43.626;10.580;2023-10-19T05:33:06;100265.00;;;17.62;84.34
35129;BME280;21301;43.626;10.580;2023-10-19T05:35:32;100254.38;;;17.62;84.22
35129;BME280;21301;43.626;10.580;2023-10-19T05:38:00;100261.53;;;17.62;84.44
35129;BME280;21301;43.626;10.580;2023-10-19T05:40:27;100283.16;;;17.59;84.53
35129;BME280;21301;43.626;10.580;2023-10-19T05:42:57;100288.63;;;17.57;84.27
35129;BME280;21301;43.626;10.580;2023-10-19T05:45:23;100304.44;;;17.51;84.52
35129;BME280;21301;43.626;10.580;2023-10-19T05:47:49;100297.31;;;17.51;84.49
35129;BME280;21301;43.626;10.580;2023-10-19T05:50:14;100297.13;;;17.53;84.62
35129;BME280;21301;43.626;10.580;2023-10-19T05:52:43;100306.28;;;17.50;84.67
35129;BME280;21301;43.626;10.580;2023-10-19T05:55:11;100307.09;;;17.51;84.54
35129;BME280;21301;43.626;10.580;2023-10-19T05:57:37;100302.13;;;17.56;84.54
35129;BME280;21301;43.626;10.580;2023-10-19T06:00:09;100306.59;;;17.55;84.21
35129;BME280;21301;43.626;10.580;2023-10-19T06:02:48;100302.94;;;17.56;84.27
35129;BME280;21301;43.626;10.580;2023-10-19T06:05:18;100296.63;;;17.57;84.28
35129;BME280;21301;43.626;10.580;2023-10-19T06:07:48;100302.44;;;17.61;84.82
35129;BME280;21301;43.626;10.580;2023-10-19T06:10:16;100303.59;;;17.58;84.93
35129;BME280;21301;43.626;10.580;2023-10-19T06:12:43;100311.88;;;17.63;84.89
35129;BME280;21301;43.626;10.580;2023-10-19T06:15:10;100302.75;;;17.66;85.04
35129;BME280;21301;43.626;10.580;2023-10-19T06:17:39;100301.72;;;17.67;85.85
35129;BME280;21301;43.626;10.580;2023-10-19T06:20:10;100311.19;;;17.70;86.52
35129;BME280;21301;43.626;10.580;2023-10-19T06:22:49;100301.03;;;17.73;86.58
35129;BME280;21301;43.626;10.580;2023-10-19T06:25:17;100298.84;;;17.77;86.66
35129;BME280;21301;43.626;10.580;2023-10-19T06:27:43;100314.97;;;17.83;86.45
35129;BME280;21301;43.626;10.580;2023-10-19T06:30:09;100306.13;;;17.91;86.51
35129;BME280;21301;43.626;10.580;2023-10-19T06:32:36;100305.59;;;17.96;86.81
35129;BME280;21301;43.626;10.580;2023-10-19T06:35:03;100312.78;;;17.87;87.25
35129;BME280;21301;43.626;10.580;2023-10-19T06:37:29;100330.25;;;17.90;86.92
35129;BME280;21301;43.626;10.580;2023-10-19T06:39:54;100332.06;;;17.89;87.29
35129;BME280;21301;43.626;10.580;2023-10-19T06:42:20;100335.38;;;17.91;87.08
35129;BME280;21301;43.626;10.580;2023-10-19T06:44:46;100336.34;;;17.98;87.02
35129;BME280;21301;43.626;10.580;2023-10-19T06:47:11;100322.47;;;18.11;86.71
35129;BME280;21301;43.626;10.580;2023-10-19T06:49:39;100314.81;;;18.16;86.54
35129;BME280;21301;43.626;10.580;2023-10-19T06:52:05;100312.69;;;18.35;86.12
35129;BME280;21301;43.626;10.580;2023-10-19T06:54:31;100316.34;;;19.18;84.53
35129;BME280;21301;43.626;10.580;2023-10-19T06:56:57;100315.00;;;18.84;84.83
35129;BME280;21301;43.626;10.580;2023-10-19T06:59:23;100319.84;;;18.80;84.93
35129;BME280;21301;43.626;10.580;2023-10-19T07:01:49;100311.59;;;18.90;84.75
35129;BME280;21301;43.626;10.580;2023-10-19T07:04:15;100309.16;;;19.77;82.59
35129;BME280;21301;43.626;10.580;2023-10-19T07:06:41;100310.63;;;20.16;80.60
35129;BME280;21301;43.626;10.580;2023-10-19T07:09:06;100322.34;;;20.58;79.68
35129;BME280;21301;43.626;10.580;2023-10-19T07:11:32;100314.66;;;21.61;76.67
35129;BME280;21301;43.626;10.580;2023-10-19T07:14:00;100309.22;;;21.41;77.17
35129;BME280;21301;43.626;10.580;2023-10-19T07:16:26;100307.00;;;20.46;79.57
35129;BME280;21301;43.626;10.580;2023-10-19T07:18:52;100324.78;;;20.17;80.34
35129;BME280;21301;43.626;10.580;2023-10-19T07:21:18;100328.50;;;20.16;80.19
35129;BME280;21301;43.626;10.580;2023-10-19T07:23:44;100347.56;;;20.34;79.86
35129;BME280;21301;43.626;10.580;2023-10-19T07:26:11;100343.09;;;20.56;79.26
35129;BME280;21301;43.626;10.580;2023-10-19T07:28:39;100340.59;;;20.76;78.29
35129;BME280;21301;43.626;10.580;2023-10-19T07:31:05;100347.50;;;20.92;77.90
35129;BME280;21301;43.626;10.580;2023-10-19T07:33:37;100333.59;;;20.75;78.20
35129;BME280;21301;43.626;10.580;2023-10-19T07:36:12;100323.66;;;20.26;78.97
35129;BME280;21301;43.626;10.580;2023-10-19T07:38:40;100330.94;;;20.17;79.55
35129;BME280;21301;43.626;10.580;2023-10-19T07:41:08;100326.25;;;20.19;79.51
35129;BME280;21301;43.626;10.580;2023-10-19T07:43:35;100328.34;;;20.24;79.38
35129;BME280;21301;43.626;10.580;2023-10-19T07:46:00;100329.88;;;20.12;79.92
35129;BME280;21301;43.626;10.580;2023-10-19T07:48:26;100326.91;;;20.21;79.52
35129;BME280;21301;43.626;10.580;2023-10-19T07:50:52;100339.34;;;20.14;79.83
35129;BME280;21301;43.626;10.580;2023-10-19T07:53:18;100341.50;;;20.04;79.81
35129;BME280;21301;43.626;10.580;2023-10-19T07:55:44;100331.56;;;19.98;79.99
35129;BME280;21301;43.626;10.580;2023-10-19T07:58:10;100333.56;;;20.11;79.66
35129;BME280;21301;43.626;10.580;2023-10-19T08:00:36;100336.09;;;20.55;78.37
35129;BME280;21301;43.626;10.580;2023-10-19T08:03:03;100332.88;;;21.16;76.70
35129;BME280;21301;43.626;10.580;2023-10-19T08:05:29;100324.06;;;21.92;74.46
35129;BME280;21301;43.626;10.580;2023-10-19T08:07:55;100316.81;;;22.74;72.20
35129;BME280;21301;43.626;10.580;2023-10-19T08:10:22;100308.91;;;23.97;69.17
35129;BME280;21301;43.626;10.580;2023-10-19T08:12:48;100302.03;;;24.47;68.34
35129;BME280;21301;43.626;10.580;2023-10-19T08:15:16;100292.56;;;24.62;67.61
35129;BME280;21301;43.626;10.580;2023-10-19T08:24:46;100307.47;;;24.27;68.28
35129;BME280;21301;43.626;10.580;2023-10-19T08:27:12;100300.31;;;23.69;69.86
35129;BME280;21301;43.626;10.580;2023-10-19T08:29:38;100300.50;;;23.09;71.03
35129;BME280;21301;43.626;10.580;2023-10-19T08:32:04;100295.56;;;22.99;70.83
35129;BME280;21301;43.626;10.580;2023-10-19T08:34:34;100290.66;;;23.61;69.23
35129;BME280;21301;43.626;10.580;2023-10-19T08:37:01;100282.34;;;24.14;68.22
35129;BME280;21301;43.626;10.580;2023-10-19T08:39:27;100283.47;;;24.63;66.90
35129;BME280;21301;43.626;10.580;2023-10-19T08:41:53;100287.47;;;24.22;67.45
35129;BME280;21301;43.626;10.580;2023-10-19T08:44:21;100281.78;;;24.37;66.98
35129;BME280;21301;43.626;10.580;2023-10-19T08:46:46;100279.59;;;24.28;67.38
35129;BME280;21301;43.626;10.580;2023-10-19T08:49:20;100269.81;;;23.56;68.84
35129;BME280;21301;43.626;10.580;2023-10-19T08:51:47;100263.66;;;23.49;69.07
35129;BME280;21301;43.626;10.580;2023-10-19T08:54:14;100258.53;;;23.48;68.61
35129;BME280;21301;43.626;10.580;2023-10-19T08:56:41;100252.66;;;23.64;67.92
35129;BME280;21301;43.626;10.580;2023-10-19T08:59:08;100264.44;;;24.08;67.77
35129;BME280;21301;43.626;10.580;2023-10-19T09:01:36;100258.22;;;24.64;66.09
35129;BME280;21301;43.626;10.580;2023-10-19T09:04:02;100251.25;;;24.82;65.75
35129;BME280;21301;43.626;10.580;2023-10-19T09:06:33;100253.56;;;24.53;66.24
35129;BME280;21301;43.626;10.580;2023-10-19T09:09:08;100253.22;;;24.43;66.07
35129;BME280;21301;43.626;10.580;2023-10-19T09:11:35;100248.53;;;24.63;65.64
35129;BME280;21301;43.626;10.580;2023-10-19T09:14:01;100253.91;;;25.25;64.60
35129;BME280;21301;43.626;10.580;2023-10-19T09:16:29;100245.47;;;26.31;62.23
35129;BME280;21301;43.626;10.580;2023-10-19T09:18:56;100253.72;;;26.60;61.34
35129;BME280;21301;43.626;10.580;2023-10-19T09:21:22;100262.41;;;26.85;60.88
35129;BME280;21301;43.626;10.580;2023-10-19T09:23:52;100252.31;;;26.92;60.92
35129;BME280;21301;43.626;10.580;2023-10-19T09:26:18;100238.88;;;26.15;62.95
35129;BME280;21301;43.626;10.580;2023-10-19T09:28:49;100242.84;;;25.52;63.14
35129;BME280;21301;43.626;10.580;2023-10-19T09:31:15;100241.16;;;25.21;65.28
35129;BME280;21301;43.626;10.580;2023-10-19T09:33:43;100246.03;;;25.05;65.83
35129;BME280;21301;43.626;10.580;2023-10-19T09:36:13;100236.41;;;25.16;65.42
35129;BME280;21301;43.626;10.580;2023-10-19T09:38:49;100229.25;;;24.66;65.25
35129;BME280;21301;43.626;10.580;2023-10-19T09:41:22;100235.94;;;24.32;67.00
35129;BME280;21301;43.626;10.580;2023-10-19T09:43:50;100238.59;;;24.07;68.29
35129;BME280;21301;43.626;10.580;2023-10-19T09:46:23;100231.97;;;23.71;68.06
35129;BME280;21301;43.626;10.580;2023-10-19T09:48:49;100218.50;;;23.39;69.29
35129;BME280;21301;43.626;10.580;2023-10-19T09:51:16;100222.72;;;23.15;69.48
35129;BME280;21301;43.626;10.580;2023-10-19T09:53:49;100213.91;;;22.82;70.17
35129;BME280;21301;43.626;10.580;2023-10-19T09:56:21;100212.88;;;22.76;70.69
35129;BME280;21301;43.626;10.580;2023-10-19T09:58:54;100208.53;;;22.82;70.33
35129;BME280;21301;43.626;10.580;2023-10-19T10:01:21;100222.19;;;22.67;70.86
35129;BME280;21301;43.626;10.580;2023-10-19T10:03:53;100217.47;;;22.42;71.35
35129;BME280;21301;43.626;10.580;2023-10-19T10:06:30;100206.09;;;22.13;72.33
35129;BME280;21301;43.626;10.580;2023-10-19T10:09:00;100208.94;;;22.05;72.48
35129;BME280;21301;43.626;10.580;2023-10-19T10:11:27;100216.97;;;22.05;72.19
35129;BME280;21301;43.626;10.580;2023-10-19T10:13:57;100220.47;;;21.92;72.88
35129;BME280;21301;43.626;10.580;2023-10-19T10:16:27;100218.22;;;22.03;72.59
35129;BME280;21301;43.626;10.580;2023-10-19T10:19:00;100198.44;;;21.97;73.47
35129;BME280;21301;43.626;10.580;2023-10-19T10:21:27;100195.16;;;22.02;73.30
35129;BME280;21301;43.626;10.580;2023-10-19T10:23:55;100196.00;;;22.62;71.95
35129;BME280;21301;43.626;10.580;2023-10-19T10:26:24;100191.00;;;22.99;71.41
35129;BME280;21301;43.626;10.580;2023-10-19T10:29:09;100196.19;;;22.74;73.13
35129;BME280;21301;43.626;10.580;2023-10-19T10:31:47;100189.00;;;22.48;73.28
35129;BME280;21301;43.626;10.580;2023-10-19T10:37:04;100181.38;;;22.31;73.55
35129;BME280;21301;43.626;10.580;2023-10-19T10:39:33;100185.53;;;22.21;73.93
35129;BME280;21301;43.626;10.580;2023-10-19T10:42:05;100180.16;;;22.21;74.20
35129;BME280;21301;43.626;10.580;2023-10-19T10:44:41;100178.09;;;22.29;74.24
35129;BME280;21301;43.626;10.580;2023-10-19T10:47:20;100172.31;;;22.39;73.60
35129;BME280;21301;43.626;10.580;2023-10-19T10:49:59;100158.53;;;22.42;73.15
35129;BME280;21301;43.626;10.580;2023-10-19T10:52:28;100145.94;;;22.43;72.91
35129;BME280;21301;43.626;10.580;2023-10-19T10:54:58;100156.38;;;22.77;71.85
35129;BME280;21301;43.626;10.580;2023-10-19T10:57:30;100152.94;;;23.29;71.16
35129;BME280;21301;43.626;10.580;2023-10-19T11:00:07;100150.63;;;23.32;70.38
35129;BME280;21301;43.626;10.580;2023-10-19T11:02:37;100148.69;;;23.08;71.10
35129;BME280;21301;43.626;10.580;2023-10-19T11:05:08;100155.16;;;22.80;71.79
35129;BME280;21301;43.626;10.580;2023-10-19T11:07:40;100138.94;;;23.20;70.46
35129;BME280;21301;43.626;10.580;2023-10-19T11:10:06;100132.19;;;23.81;68.72
35129;BME280;21301;43.626;10.580;2023-10-19T11:12:33;100133.78;;;24.14;67.60
35129;BME280;21301;43.626;10.580;2023-10-19T11:15:00;100135.75;;;24.50;66.84
35129;BME280;21301;43.626;10.580;2023-10-19T11:17:28;100127.84;;;24.92;65.99
35129;BME280;21301;43.626;10.580;2023-10-19T11:19:58;100127.75;;;24.99;65.94
35129;BME280;21301;43.626;10.580;2023-10-19T11:22:25;100127.31;;;25.02;65.88
35129;BME280;21301;43.626;10.580;2023-10-19T11:25:18;100123.78;;;25.01;64.53
35129;BME280;21301;43.626;10.580;2023-10-19T11:27:43;100126.44;;;24.90;66.07
35129;BME280;21301;43.626;10.580;2023-10-19T11:30:09;100134.25;;;24.91;66.40
35129;BME280;21301;43.626;10.580;2023-10-19T11:32:37;100132.09;;;24.81;66.65
35129;BME280;21301;43.626;10.580;2023-10-19T11:35:03;100142.78;;;24.88;66.64
35129;BME280;21301;43.626;10.580;2023-10-19T11:37:29;100140.31;;;24.86;66.23
35129;BME280;21301;43.626;10.580;2023-10-19T11:39:55;100123.22;;;24.99;66.24
35129;BME280;21301;43.626;10.580;2023-10-19T11:42:20;100125.09;;;24.62;66.80
35129;BME280;21301;43.626;10.580;2023-10-19T11:44:46;100121.38;;;24.38;66.76
35129;BME280;21301;43.626;10.580;2023-10-19T11:47:12;100109.38;;;24.40;67.02
35129;BME280;21301;43.626;10.580;2023-10-19T11:49:39;100111.34;;;24.27;67.33
35129;BME280;21301;43.626;10.580;2023-10-19T11:52:07;100115.38;;;24.17;67.73
35129;BME280;21301;43.626;10.580;2023-10-19T11:54:33;100110.78;;;24.24;67.71
35129;BME280;21301;43.626;10.580;2023-10-19T11:56:59;100121.88;;;24.28;67.60
35129;BME280;21301;43.626;10.580;2023-10-19T11:59:25;100133.47;;;24.03;67.94
35129;BME280;21301;43.626;10.580;2023-10-19T12:01:52;100122.19;;;23.95;67.64
35129;BME280;21301;43.626;10.580;2023-10-19T12:04:18;100120.63;;;23.80;68.37
35129;BME280;21301;43.626;10.580;2023-10-19T12:06:44;100115.50;;;23.79;68.07
35129;BME280;21301;43.626;10.580;2023-10-19T12:09:11;100118.75;;;23.81;67.61
35129;BME280;21301;43.626;10.580;2023-10-19T12:11:41;100102.06;;;23.79;67.67
35129;BME280;21301;43.626;10.580;2023-10-19T12:14:06;100096.72;;;23.79;67.98
35129;BME280;21301;43.626;10.580;2023-10-19T12:16:37;100104.34;;;23.75;68.51
35129;BME280;21301;43.626;10.580;2023-10-19T12:19:05;100101.78;;;23.87;68.52
35129;BME280;21301;43.626;10.580;2023-10-19T12:21:30;100112.88;;;23.66;69.15
35129;BME280;21301;43.626;10.580;2023-10-19T12:23:56;100109.13;;;23.67;69.21
35129;BME280;21301;43.626;10.580;2023-10-19T12:26:23;100095.28;;;23.70;69.21
35129;BME280;21301;43.626;10.580;2023-10-19T12:28:49;100083.50;;;23.71;68.95
35129;BME280;21301;43.626;10.580;2023-10-19T12:31:15;100083.00;;;23.55;69.47
35129;BME280;21301;43.626;10.580;2023-10-19T12:33:44;100064.84;;;23.57;69.51
35129;BME280;21301;43.626;10.580;2023-10-19T12:36:10;100061.91;;;23.59;69.18
35129;BME280;21301;43.626;10.580;2023-10-19T12:38:48;100044.88;;;23.47;69.47
35129;BME280;21301;43.626;10.580;2023-10-19T12:41:14;100039.50;;;23.47;69.65
35129;BME280;21301;43.626;10.580;2023-10-19T12:43:40;100040.19;;;23.35;69.75
35129;BME280;21301;43.626;10.580;2023-10-19T12:46:05;100044.41;;;23.25;70.40
35129;BME280;21301;43.626;10.580;2023-10-19T12:48:34;100052.03;;;23.28;70.04
35129;BME280;21301;43.626;10.580;2023-10-19T12:51:04;100057.19;;;23.29;70.15
35129;BME280;21301;43.626;10.580;2023-10-19T12:53:32;100052.59;;;23.36;70.21
35129;BME280;21301;43.626;10.580;2023-10-19T12:55:58;100040.69;;;23.26;70.33
35129;BME280;21301;43.626;10.580;2023-10-19T12:58:25;100028.72;;;23.28;70.21
35129;BME280;21301;43.626;10.580;2023-10-19T13:00:53;100030.34;;;23.29;70.50
35129;BME280;21301;43.626;10.580;2023-10-19T13:03:21;100028.88;;;23.33;70.31